createdAt,value
2023-04-24T00:01:45.771Z,18.23
2023-04-24T00:04:18.012Z,18.02
2023-04-24T00:06:50.668Z,18.08
2023-04-24T00:09:19.070Z,18.40
2023-04-24T00:11:47.754Z,19.20
2023-04-24T00:14:17.361Z,20.38
2023-04-24T00:16:46.465Z,18.58
2023-04-24T00:19:14.965Z,20.83
2023-04-24T00:21:43.725Z,20.17
2023-04-24T00:24:12.106Z,20.60
2023-04-24T00:26:41.231Z,20.30
2023-04-24T00:29:09.643Z,20.75
2023-04-24T00:31:39.994Z,20.23
2023-04-24T00:34:08.971Z,20.05
2023-04-24T00:37:03.685Z,20.48
2023-04-24T00:39:32.370Z,21.92
2023-04-24T00:42:02.657Z,21.20
2023-04-24T00:44:31.230Z,20.38
2023-04-24T00:47:01.192Z,21.52
2023-04-24T00:49:30.046Z,20.85
2023-04-24T00:52:00.467Z,21.65
2023-04-24T00:54:29.063Z,21.58
2023-04-24T00:56:58.056Z,21.52
2023-04-24T00:59:26.651Z,22.45
2023-04-24T01:01:56.305Z,23.10
2023-04-24T01:04:26.013Z,21.92
2023-04-24T01:06:57.481Z,23.63
2023-04-24T01:09:26.825Z,23.30
2023-04-24T01:11:56.245Z,23.77
2023-04-24T01:14:25.091Z,24.55
2023-04-24T01:16:53.951Z,23.27
2023-04-24T01:19:22.704Z,23.73
2023-04-24T01:21:54.662Z,24.55
2023-04-24T01:24:23.074Z,24.15
2023-04-24T01:26:52.002Z,24.23
2023-04-24T01:29:21.505Z,24.05
2023-04-24T01:31:51.424Z,24.00
2023-04-24T01:34:20.235Z,25.08
2023-04-24T01:36:49.631Z,24.67
2023-04-24T01:39:18.480Z,23.52
2023-04-24T01:41:48.449Z,24.88
2023-04-24T01:44:17.447Z,24.70
2023-04-24T01:46:46.353Z,25.85
2023-04-24T01:49:14.721Z,25.58
2023-04-24T01:51:44.047Z,24.85
2023-04-24T01:54:12.540Z,24.48
2023-04-24T01:56:44.744Z,25.60
2023-04-24T01:59:13.581Z,25.35
2023-04-24T02:01:42.782Z,24.95
2023-04-24T02:04:11.407Z,25.00
2023-04-24T02:06:40.625Z,24.52
2023-04-24T02:09:09.184Z,24.88
2023-04-24T02:11:38.416Z,24.60
2023-04-24T02:14:06.908Z,25.05
2023-04-24T02:16:37.202Z,24.90
2023-04-24T02:19:05.546Z,23.65
2023-04-24T02:21:34.581Z,23.60
2023-04-24T02:24:03.445Z,23.75
2023-04-24T02:26:32.922Z,25.70
2023-04-24T02:29:02.779Z,22.98
2023-04-24T02:31:31.889Z,24.10
2023-04-24T02:34:00.216Z,23.60
2023-04-24T02:36:29.305Z,23.63
2023-04-24T02:38:57.669Z,23.90
2023-04-24T02:41:26.562Z,23.73
2023-04-24T02:43:55.081Z,23.48
2023-04-24T02:46:24.021Z,23.98
2023-04-24T02:48:52.583Z,22.67
2023-04-24T02:51:22.921Z,21.90
2023-04-24T02:53:51.252Z,23.00
2023-04-24T02:56:20.154Z,23.33
2023-04-24T02:58:51.019Z,23.77
2023-04-24T03:01:20.016Z,24.05
2023-04-24T03:03:48.827Z,23.15
2023-04-24T03:06:17.699Z,23.95
2023-04-24T03:08:46.338Z,23.38
2023-04-24T03:11:16.484Z,24.00
2023-04-24T03:13:45.088Z,23.63
2023-04-24T03:16:13.864Z,23.15
2023-04-24T03:18:42.275Z,23.27
2023-04-24T03:21:15.131Z,23.67
2023-04-24T03:23:44.180Z,24.13
2023-04-24T03:26:13.025Z,24.23
2023-04-24T03:28:52.129Z,23.30
2023-04-24T03:31:22.732Z,22.55
2023-04-24T03:33:51.101Z,23.08
2023-04-24T03:36:20.867Z,23.60
2023-04-24T03:38:49.667Z,22.60
2023-04-24T03:41:31.435Z,23.90
2023-04-24T03:44:27.045Z,23.38
2023-04-24T03:46:56.309Z,23.77
2023-04-24T03:49:26.740Z,22.88
2023-04-24T03:51:57.720Z,24.05
2023-04-24T03:54:30.923Z,24.08
2023-04-24T03:57:00.160Z,23.65
2023-04-24T03:59:30.340Z,23.73
2023-04-24T04:02:16.734Z,23.77
2023-04-24T04:04:45.410Z,23.83
2023-04-24T04:07:14.585Z,23.83
2023-04-24T04:10:08.943Z,24.05
2023-04-24T04:12:43.836Z,23.35
2023-04-24T04:15:12.580Z,26.15
2023-04-24T04:17:41.494Z,26.25
2023-04-24T04:20:13.197Z,25.75
2023-04-24T04:22:44.509Z,26.85
2023-04-24T04:25:20.737Z,25.85
2023-04-24T04:29:07.724Z,26.47
2023-04-24T04:31:52.095Z,26.27
2023-04-24T04:34:20.651Z,28.00
2023-04-24T04:36:49.442Z,26.45
2023-04-24T04:39:41.960Z,26.65
2023-04-24T04:42:15.052Z,27.63
2023-04-24T04:44:45.997Z,26.58
2023-04-24T04:47:28.314Z,26.23
2023-04-24T04:50:00.059Z,23.77
2023-04-24T04:52:31.170Z,24.17
2023-04-24T04:55:21.357Z,24.92
2023-04-24T04:58:10.632Z,24.20
2023-04-24T05:00:40.262Z,23.45
2023-04-24T05:03:21.250Z,24.13
2023-04-24T05:05:56.284Z,27.42
2023-04-24T05:08:27.824Z,26.33
2023-04-24T05:10:57.538Z,22.60
2023-04-24T05:13:39.324Z,22.35
2023-04-24T05:16:20.079Z,21.08
2023-04-24T05:18:50.310Z,23.02
2023-04-24T05:21:23.383Z,23.55
2023-04-24T05:23:54.125Z,22.20
2023-04-24T05:26:39.464Z,20.30
2023-04-24T05:29:10.101Z,20.92
2023-04-24T05:31:38.345Z,20.83
2023-04-24T05:34:07.570Z,20.13
2023-04-24T05:36:37.088Z,19.95
2023-04-24T05:39:08.353Z,20.60
2023-04-24T05:41:36.778Z,20.90
2023-04-24T05:44:05.673Z,21.45
2023-04-24T05:46:34.092Z,21.30
2023-04-24T05:49:03.559Z,20.33
2023-04-24T05:51:33.920Z,19.20
2023-04-24T05:54:04.566Z,17.95
2023-04-24T05:56:33.339Z,17.95
2023-04-24T05:59:04.794Z,17.38
2023-04-24T06:01:33.989Z,17.55
2023-04-24T06:04:11.734Z,17.33
2023-04-24T06:06:40.366Z,15.77
2023-04-24T06:09:09.960Z,15.57
2023-04-24T06:11:38.193Z,14.30
2023-04-24T06:14:08.145Z,14.63
2023-04-24T06:16:59.015Z,14.10
2023-04-24T06:19:38.680Z,14.80
2023-04-24T06:22:08.474Z,13.85
2023-04-24T06:24:38.621Z,13.93
2023-04-24T06:27:07.109Z,16.88
2023-04-24T06:29:38.034Z,17.95
2023-04-24T06:32:06.527Z,17.08
2023-04-24T06:34:35.751Z,15.13
2023-04-24T06:37:03.994Z,14.50
2023-04-24T06:39:32.609Z,15.27
2023-04-24T06:42:01.725Z,14.55
2023-04-24T06:44:30.723Z,14.75
2023-04-24T06:46:59.265Z,14.63
2023-04-24T06:49:30.035Z,14.73
2023-04-24T06:51:58.605Z,14.75
2023-04-24T06:54:27.115Z,14.70
2023-04-24T06:56:55.722Z,14.35
2023-04-24T06:59:25.583Z,14.40
2023-04-24T07:01:55.335Z,14.75
2023-04-24T07:04:26.770Z,13.80
2023-04-24T07:06:59.153Z,15.90
2023-04-24T07:09:30.463Z,15.63
2023-04-24T07:11:59.472Z,15.57
2023-04-24T07:14:28.325Z,16.38
2023-04-24T07:16:58.207Z,15.45
2023-04-24T07:19:27.444Z,16.20
2023-04-24T07:21:56.203Z,14.55
2023-04-24T07:24:26.791Z,15.32
2023-04-24T07:26:55.455Z,14.18
2023-04-24T07:29:23.978Z,13.77
2023-04-24T07:31:52.256Z,12.02
2023-04-24T07:34:21.401Z,11.93
2023-04-24T07:36:49.835Z,11.73
2023-04-24T07:39:19.292Z,13.02
2023-04-24T07:41:47.719Z,12.82
2023-04-24T07:44:16.454Z,13.07
2023-04-24T07:46:44.761Z,12.95
2023-04-24T07:49:14.489Z,13.02
2023-04-24T07:51:43.590Z,12.30
2023-04-24T07:54:12.462Z,11.80
2023-04-24T07:56:43.932Z,12.57
2023-04-24T07:59:12.658Z,11.30
2023-04-24T08:01:41.167Z,10.48
2023-04-24T08:04:09.999Z,9.90
2023-04-24T08:06:38.394Z,9.60
2023-04-24T08:09:07.386Z,10.02
2023-04-24T08:11:35.678Z,8.80
2023-04-24T08:14:04.505Z,8.20
2023-04-24T08:16:34.414Z,8.38
2023-04-24T08:19:03.437Z,8.10
2023-04-24T08:21:31.619Z,7.68
2023-04-24T08:24:00.499Z,8.10
2023-04-24T08:26:28.754Z,8.60
2023-04-24T08:28:57.879Z,8.57
2023-04-24T08:31:27.308Z,8.77
2023-04-24T08:33:56.057Z,8.27
2023-04-24T08:36:30.408Z,8.45
2023-04-24T08:39:05.371Z,8.95
2023-04-24T08:41:35.920Z,8.75
2023-04-24T08:44:04.843Z,8.80
2023-04-24T08:46:34.340Z,8.38
2023-04-24T08:49:03.627Z,8.95
2023-04-24T08:51:32.673Z,8.85
2023-04-24T08:54:02.561Z,8.60
2023-04-24T08:56:33.124Z,9.20
2023-04-24T08:59:03.996Z,8.18
2023-04-24T09:01:34.097Z,8.25
2023-04-24T09:04:05.276Z,8.80
2023-04-24T09:06:35.671Z,8.30
2023-04-24T09:09:06.571Z,10.35
2023-04-24T09:11:35.583Z,9.13
2023-04-24T09:14:05.122Z,9.63
2023-04-24T09:16:36.481Z,9.30
2023-04-24T09:19:06.024Z,9.93
2023-04-24T09:21:36.259Z,10.23
2023-04-24T09:24:08.650Z,9.00
2023-04-24T09:26:38.034Z,8.93
2023-04-24T09:29:06.611Z,9.77
2023-04-24T09:31:34.826Z,9.50
2023-04-24T09:34:08.286Z,9.98
2023-04-24T09:36:44.600Z,9.77
2023-04-24T09:39:18.905Z,9.07
2023-04-24T09:41:49.828Z,9.10
2023-04-24T09:44:23.875Z,8.65
2023-04-24T09:46:57.450Z,8.43
2023-04-24T09:49:31.101Z,8.18
2023-04-24T09:52:07.182Z,7.40
2023-04-24T09:54:38.052Z,7.35
2023-04-24T09:57:08.581Z,6.47
2023-04-24T09:59:44.868Z,6.78
2023-04-24T10:02:21.197Z,7.38
2023-04-24T10:05:01.721Z,7.57
2023-04-24T10:07:30.245Z,6.90
2023-04-24T10:09:59.740Z,7.32
2023-04-24T10:12:28.207Z,7.97
2023-04-24T10:14:58.710Z,7.03
2023-04-24T10:17:28.460Z,7.60
2023-04-24T10:19:58.466Z,7.65
2023-04-24T10:22:28.037Z,7.18
2023-04-24T10:24:58.206Z,7.15
2023-04-24T10:27:28.439Z,8.10
2023-04-24T10:29:57.752Z,7.60
2023-04-24T10:32:26.094Z,7.45
2023-04-24T10:34:57.757Z,7.95
2023-04-24T10:37:27.613Z,7.63
2023-04-24T10:39:57.562Z,8.18
2023-04-24T10:42:28.938Z,9.43
2023-04-24T10:47:27.750Z,9.52
2023-04-24T10:50:00.538Z,10.05
2023-04-24T10:52:46.156Z,10.68
2023-04-24T10:55:16.490Z,10.68
2023-04-24T10:58:05.055Z,10.35
2023-04-24T11:00:34.329Z,10.32
2023-04-24T11:03:06.530Z,9.68
2023-04-24T11:06:06.573Z,9.70
2023-04-24T11:08:45.659Z,9.82
2023-04-24T11:11:16.303Z,9.80
2023-04-24T11:14:07.908Z,10.18
2023-04-24T11:19:08.999Z,10.05
2023-04-24T11:21:43.968Z,10.00
2023-04-24T11:24:41.891Z,10.05
2023-04-24T11:27:21.847Z,9.73
2023-04-24T11:29:51.535Z,9.77
2023-04-24T11:32:26.364Z,10.00
2023-04-24T11:35:32.054Z,10.88
2023-04-24T11:38:22.823Z,10.50
2023-04-24T11:40:53.639Z,10.32
2023-04-24T11:43:26.606Z,10.35
2023-04-24T11:45:55.452Z,11.65
2023-04-24T11:48:24.688Z,10.68
2023-04-24T11:50:53.302Z,11.27
2023-04-24T11:53:23.134Z,10.65
2023-04-24T11:55:51.620Z,11.25
2023-04-24T11:58:23.144Z,12.13
2023-04-24T12:00:59.595Z,12.23
2023-04-24T12:03:28.941Z,11.60
2023-04-24T12:06:09.179Z,12.07
2023-04-24T12:08:38.916Z,12.32
2023-04-24T12:11:08.590Z,11.75
2023-04-24T12:13:37.590Z,11.30
2023-04-24T12:16:06.851Z,11.75
2023-04-24T12:18:35.940Z,12.38
2023-04-24T12:21:24.703Z,11.10
2023-04-24T12:23:56.155Z,11.15
2023-04-24T12:26:24.438Z,10.57
2023-04-24T12:28:52.952Z,10.75
2023-04-24T12:31:22.579Z,10.10
2023-04-24T12:33:51.490Z,9.18
2023-04-24T12:36:22.449Z,7.65
2023-04-24T12:38:54.410Z,6.95
2023-04-24T12:43:55.925Z,5.95
2023-04-24T12:46:24.411Z,5.97
2023-04-24T12:48:52.984Z,5.43
2023-04-24T12:51:47.570Z,5.72
2023-04-24T12:54:16.612Z,5.85
2023-04-24T12:56:44.845Z,5.63
2023-04-24T12:59:13.652Z,5.50
2023-04-24T13:01:42.556Z,5.75
2023-04-24T13:04:11.598Z,6.43
2023-04-24T13:06:39.905Z,5.50
2023-04-24T13:09:08.866Z,5.53
2023-04-24T13:11:37.228Z,6.10
2023-04-24T13:14:05.826Z,5.80
2023-04-24T13:16:37.586Z,5.20
2023-04-24T13:19:06.313Z,4.82
2023-04-24T13:21:37.522Z,4.80
2023-04-24T13:24:17.080Z,5.25
2023-04-24T13:26:45.367Z,5.43
2023-04-24T13:29:14.028Z,5.75
2023-04-24T13:31:42.447Z,6.30
2023-04-24T13:34:11.531Z,6.07
2023-04-24T13:36:39.928Z,6.43
2023-04-24T13:39:08.927Z,6.50
2023-04-24T13:41:37.770Z,6.43
2023-04-24T13:44:07.372Z,6.10
2023-04-24T13:46:36.040Z,6.82
2023-04-24T13:49:07.335Z,7.03
2023-04-24T13:51:36.810Z,7.67
2023-04-24T13:54:05.639Z,7.88
2023-04-24T13:56:34.378Z,8.32
2023-04-24T13:59:03.289Z,8.63
2023-04-24T14:01:32.128Z,8.73
2023-04-24T14:04:01.290Z,8.95
2023-04-24T14:06:55.657Z,10.02
2023-04-24T14:09:24.369Z,10.27
2023-04-24T14:11:53.927Z,8.45
2023-04-24T14:14:22.808Z,8.10
2023-04-24T14:16:52.164Z,7.43
2023-04-24T14:19:23.899Z,7.07
2023-04-24T14:21:52.798Z,7.10
2023-04-24T14:24:21.676Z,6.80
2023-04-24T14:26:49.933Z,6.30
2023-04-24T14:29:18.668Z,6.18
2023-04-24T14:31:47.093Z,6.00
2023-04-24T14:34:16.733Z,6.18
2023-04-24T14:36:45.138Z,7.07
2023-04-24T14:39:13.957Z,6.32
2023-04-24T14:41:42.431Z,5.35
2023-04-24T14:44:11.657Z,5.15
2023-04-24T14:46:40.495Z,4.40
2023-04-24T14:49:10.849Z,5.43
2023-04-24T14:51:39.396Z,5.13
2023-04-24T14:54:08.688Z,5.25
2023-04-24T14:56:37.196Z,6.35
2023-04-24T14:59:13.415Z,5.60
2023-04-24T15:02:15.940Z,6.00
2023-04-24T15:04:46.330Z,6.72
2023-04-24T15:07:43.597Z,5.35
2023-04-24T15:10:12.241Z,5.38
2023-04-24T15:12:41.821Z,5.53
2023-04-24T15:15:10.806Z,5.53
2023-04-24T15:17:39.483Z,5.90
2023-04-24T15:20:08.790Z,6.10
2023-04-24T15:22:37.450Z,5.38
2023-04-24T15:25:06.907Z,6.18
2023-04-24T15:27:46.233Z,6.07
2023-04-24T15:30:14.977Z,5.85
2023-04-24T15:32:44.867Z,6.53
2023-04-24T15:35:38.444Z,5.95
2023-04-24T15:38:07.142Z,6.25
2023-04-24T15:40:35.427Z,7.32
2023-04-24T15:43:07.772Z,5.18
2023-04-24T15:45:36.660Z,5.10
2023-04-24T15:48:06.285Z,6.35
2023-04-24T15:50:35.701Z,5.43
2023-04-24T15:53:04.625Z,5.00
2023-04-24T15:55:33.752Z,5.25
2023-04-24T15:58:02.437Z,5.53
2023-04-24T16:00:34.385Z,5.57
2023-04-24T16:03:03.562Z,8.43
2023-04-24T16:06:22.650Z,33.55
2023-04-24T16:08:51.372Z,5.63
2023-04-24T16:11:19.683Z,4.75
2023-04-24T16:13:48.222Z,4.40
2023-04-24T16:16:16.536Z,5.15
2023-04-24T16:18:45.239Z,6.20
2023-04-24T16:21:13.686Z,5.65
2023-04-24T16:23:42.433Z,4.60
2023-04-24T16:26:10.737Z,4.60
2023-04-24T16:28:49.641Z,5.20
2023-04-24T16:31:27.516Z,4.07
2023-04-24T16:34:21.675Z,3.83
2023-04-24T16:36:51.207Z,3.40
2023-04-24T16:39:20.211Z,3.90
2023-04-24T16:41:49.827Z,3.50
2023-04-24T16:44:19.618Z,3.40
2023-04-24T16:47:15.270Z,3.22
2023-04-24T16:49:44.026Z,3.50
2023-04-24T16:52:12.651Z,4.95
2023-04-24T16:54:44.844Z,4.75
2023-04-24T16:57:13.500Z,4.80
2023-04-24T16:59:43.500Z,3.60
2023-04-24T17:02:12.044Z,4.22
2023-04-24T17:04:49.539Z,4.65
2023-04-24T17:07:43.603Z,4.47
2023-04-24T17:10:12.195Z,4.70
2023-04-24T17:12:40.942Z,4.55
2023-04-24T17:15:09.930Z,4.53
2023-04-24T17:17:38.719Z,4.70
2023-04-24T17:20:20.739Z,5.05
2023-04-24T17:22:51.167Z,5.68
2023-04-24T17:25:21.591Z,4.88
2023-04-24T17:27:49.971Z,5.78
2023-04-24T17:30:18.830Z,5.28
2023-04-24T17:32:47.236Z,5.07
2023-04-24T17:35:15.833Z,5.05
2023-04-24T17:37:44.212Z,6.53
2023-04-24T17:40:40.509Z,4.57
2023-04-24T17:43:33.817Z,4.80
2023-04-24T17:46:07.745Z,4.63
2023-04-24T17:48:36.077Z,6.75
2023-04-24T17:51:04.874Z,6.30
2023-04-24T17:53:33.509Z,5.40
2023-04-24T17:56:04.480Z,5.25
2023-04-24T17:58:38.737Z,5.88
2023-04-24T18:01:07.828Z,5.88
2023-04-24T18:03:36.643Z,9.77
2023-04-24T18:06:07.704Z,7.03
2023-04-24T18:08:38.976Z,6.32
2023-04-24T18:11:21.673Z,8.18
2023-04-24T18:13:51.815Z,8.32
2023-04-24T18:16:20.594Z,8.98
2023-04-24T18:18:49.563Z,9.40
2023-04-24T18:21:19.854Z,14.13
2023-04-24T18:23:48.591Z,21.25
2023-04-24T18:26:18.833Z,18.15
2023-04-24T18:28:47.424Z,20.95
2023-04-24T18:31:19.234Z,20.50
2023-04-24T18:33:47.660Z,11.90
2023-04-24T18:36:19.438Z,11.90
2023-04-24T18:38:49.048Z,11.18
2023-04-24T18:41:43.521Z,10.90
2023-04-24T18:44:41.106Z,10.55
2023-04-24T18:47:10.462Z,10.85
2023-04-24T18:50:05.668Z,9.93
2023-04-24T18:52:34.396Z,10.38
2023-04-24T18:55:07.464Z,12.43
2023-04-24T18:57:40.114Z,11.75
2023-04-24T19:00:20.058Z,15.80
2023-04-24T19:02:49.191Z,12.85
2023-04-24T19:05:19.485Z,14.27
2023-04-24T19:08:14.166Z,22.90
2023-04-24T19:10:43.393Z,25.65
2023-04-24T19:14:05.836Z,26.65
2023-04-24T19:16:59.616Z,19.20
2023-04-24T19:19:31.815Z,13.82
2023-04-24T19:22:02.401Z,8.75
2023-04-24T19:25:03.707Z,8.32
2023-04-24T19:27:33.427Z,7.88
2023-04-24T19:30:10.164Z,8.07
2023-04-24T19:32:44.894Z,9.70
2023-04-24T19:35:13.684Z,9.15
2023-04-24T19:37:41.935Z,7.85
2023-04-24T19:41:01.889Z,8.07
2023-04-24T19:43:30.171Z,8.57
2023-04-24T19:46:01.904Z,8.75
2023-04-24T19:48:32.976Z,9.45
2023-04-24T19:59:59.081Z,9.93
2023-04-24T20:03:32.057Z,9.20
2023-04-24T20:06:02.413Z,10.10
2023-04-24T20:08:31.341Z,12.45
2023-04-24T20:15:34.070Z,10.47
2023-04-24T20:18:52.756Z,10.23
2023-04-24T20:21:48.948Z,9.70
2023-04-24T20:24:25.061Z,10.88
2023-04-24T20:26:54.452Z,11.45
2023-04-24T20:29:24.637Z,10.48
2023-04-24T20:31:53.509Z,9.95
2023-04-24T20:34:31.158Z,10.27
2023-04-24T20:37:08.169Z,9.93
2023-04-24T20:39:40.856Z,13.48
2023-04-24T20:42:13.728Z,12.20
2023-04-24T20:44:48.905Z,14.18
2023-04-24T20:47:19.152Z,10.93
2023-04-24T20:49:49.161Z,10.50
2023-04-24T20:52:18.904Z,10.73
2023-04-24T20:54:54.040Z,16.25
2023-04-24T20:57:49.734Z,14.10
2023-04-24T21:00:20.943Z,11.77
2023-04-24T21:02:52.681Z,9.77
2023-04-24T21:05:25.283Z,9.30
2023-04-24T21:11:33.608Z,10.43
2023-04-24T21:14:02.225Z,9.73
2023-04-24T21:17:15.298Z,9.00
2023-04-24T21:19:44.137Z,8.80
2023-04-24T21:22:13.989Z,9.68
2023-04-24T21:24:50.240Z,10.45
2023-04-24T21:27:19.741Z,9.10
2023-04-24T21:29:52.542Z,8.73
2023-04-24T21:32:21.811Z,9.00
2023-04-24T21:34:55.663Z,8.65
2023-04-24T21:40:28.506Z,9.18
2023-04-24T21:42:56.872Z,8.98
2023-04-24T21:45:26.014Z,8.57
2023-04-24T21:47:54.394Z,8.73
2023-04-24T21:50:23.089Z,8.68
2023-04-24T21:52:51.787Z,8.80
2023-04-24T21:55:27.159Z,8.38
2023-04-24T21:57:58.083Z,8.48
2023-04-24T22:00:27.320Z,8.27
2023-04-24T22:02:55.707Z,8.70
2023-04-24T22:05:24.930Z,7.72
2023-04-24T22:07:54.726Z,6.15
2023-04-24T22:10:24.537Z,5.53
2023-04-24T22:12:53.104Z,6.45
2023-04-24T22:15:27.747Z,6.40
2023-04-24T22:17:58.033Z,6.13
2023-04-24T22:20:27.052Z,6.22
2023-04-24T22:22:55.206Z,6.30
2023-04-24T22:25:23.869Z,6.85
2023-04-24T22:27:52.386Z,6.57
2023-04-24T22:30:21.338Z,6.57
2023-04-24T22:32:49.721Z,6.05
2023-04-24T22:35:22.766Z,5.72
2023-04-24T22:37:58.429Z,5.72
2023-04-24T22:40:27.189Z,6.25
2023-04-24T22:42:55.699Z,6.32
2023-04-24T22:45:24.476Z,6.07
2023-04-24T22:47:56.338Z,5.32
2023-04-24T22:52:54.312Z,5.10
2023-04-24T22:55:23.162Z,5.40
2023-04-24T22:57:51.936Z,4.72
2023-04-24T23:00:20.875Z,5.10
2023-04-24T23:02:49.394Z,4.47
2023-04-24T23:05:19.049Z,4.30
2023-04-24T23:07:48.081Z,4.13
2023-04-24T23:10:16.996Z,4.45
2023-04-24T23:12:45.417Z,3.97
2023-04-24T23:15:14.328Z,3.90
2023-04-24T23:17:42.686Z,4.40
2023-04-24T23:20:38.700Z,4.22
2023-04-24T23:23:07.056Z,4.50
2023-04-24T23:25:36.126Z,4.88
2023-04-24T23:28:05.241Z,4.93
2023-04-24T23:30:33.938Z,4.60
2023-04-24T23:33:02.971Z,4.82
2023-04-24T23:35:31.730Z,5.07
2023-04-24T23:38:00.132Z,4.82
2023-04-24T23:40:28.758Z,5.43
2023-04-24T23:43:06.135Z,5.20
2023-04-24T23:45:37.177Z,5.63
2023-04-24T23:48:06.072Z,5.43
2023-04-24T23:50:35.118Z,5.40
2023-04-24T23:53:03.380Z,5.80
2023-04-24T23:55:32.401Z,6.10
2023-04-24T23:58:00.677Z,5.72
